createdAt,value
2022-11-03T00:02:03.364Z,87.06
2022-11-03T00:04:30.719Z,87.79
2022-11-03T00:08:04.356Z,85.55
2022-11-03T00:10:31.478Z,86.50
2022-11-03T00:12:58.628Z,86.89
2022-11-03T00:15:25.648Z,87.97
2022-11-03T00:17:52.652Z,87.56
2022-11-03T00:20:19.626Z,86.32
2022-11-03T00:22:46.710Z,86.03
2022-11-03T00:25:13.738Z,86.51
2022-11-03T00:27:40.747Z,87.55
2022-11-03T00:30:08.674Z,86.15
2022-11-03T00:32:35.697Z,85.04
2022-11-03T00:35:02.767Z,85.29
2022-11-03T00:37:29.818Z,86.21
2022-11-03T00:39:56.868Z,87.32
2022-11-03T00:42:23.919Z,87.32
2022-11-03T00:44:50.907Z,86.61
2022-11-03T00:47:21.604Z,85.69
2022-11-03T00:49:51.282Z,85.70
2022-11-03T00:52:18.286Z,86.87
2022-11-03T00:54:45.581Z,87.84
2022-11-03T00:57:12.706Z,86.41
2022-11-03T00:59:39.754Z,86.28
2022-11-03T01:02:07.038Z,86.51
2022-11-03T01:04:52.940Z,87.03
2022-11-03T01:07:20.262Z,86.77
2022-11-03T01:09:47.335Z,85.12
2022-11-03T01:12:18.702Z,85.03
2022-11-03T01:14:47.697Z,85.17
2022-11-03T01:17:18.934Z,85.82
2022-11-03T01:19:46.378Z,85.21
2022-11-03T01:22:13.633Z,84.52
2022-11-03T01:24:41.753Z,83.57
2022-11-03T01:27:13.868Z,84.63
2022-11-03T01:29:41.442Z,85.64
2022-11-03T01:32:09.296Z,84.76
2022-11-03T01:34:36.651Z,83.08
2022-11-03T01:37:04.009Z,82.80
2022-11-03T01:39:31.103Z,83.28
2022-11-03T01:41:58.213Z,84.10
2022-11-03T01:44:29.584Z,84.70
2022-11-03T01:47:03.155Z,83.70
2022-11-03T01:49:39.007Z,82.73
2022-11-03T01:52:16.943Z,83.02
2022-11-03T01:54:45.105Z,84.02
2022-11-03T01:57:17.659Z,83.99
2022-11-03T01:59:44.693Z,82.72
2022-11-03T02:02:12.134Z,82.51
2022-11-03T02:04:39.825Z,83.35
2022-11-03T02:07:32.696Z,84.20
2022-11-03T02:10:00.327Z,83.96
2022-11-03T02:12:27.320Z,82.50
2022-11-03T02:15:09.813Z,82.27
2022-11-03T02:17:37.287Z,82.29
2022-11-03T02:20:12.622Z,83.48
2022-11-03T02:22:55.201Z,82.74
2022-11-03T02:25:33.922Z,81.72
2022-11-03T02:28:01.131Z,81.72
2022-11-03T02:30:28.331Z,82.74
2022-11-03T02:33:06.919Z,84.00
2022-11-03T02:35:49.145Z,84.41
2022-11-03T02:38:16.500Z,83.28
2022-11-03T02:40:46.969Z,83.59
2022-11-03T02:43:14.679Z,84.30
2022-11-03T02:45:41.974Z,85.54
2022-11-03T02:48:08.989Z,85.28
2022-11-03T02:50:36.038Z,84.30
2022-11-03T02:53:03.258Z,83.61
2022-11-03T02:55:42.934Z,84.41
2022-11-03T02:58:27.608Z,85.62
2022-11-03T03:01:29.153Z,84.26
2022-11-03T03:04:01.515Z,82.98
2022-11-03T03:06:39.400Z,83.48
2022-11-03T03:09:08.294Z,85.20
2022-11-03T03:11:38.989Z,85.36
2022-11-03T03:14:12.986Z,83.55
2022-11-03T03:17:00.913Z,83.02
2022-11-03T03:19:53.331Z,84.05
2022-11-03T03:22:24.713Z,85.49
2022-11-03T03:25:00.260Z,86.28
2022-11-03T03:27:28.401Z,83.93
2022-11-03T03:30:01.620Z,83.11
2022-11-03T03:32:28.948Z,83.46
2022-11-03T03:34:56.045Z,84.03
2022-11-03T03:37:23.559Z,85.22
2022-11-03T03:39:52.947Z,83.85
2022-11-03T03:42:20.803Z,81.69
2022-11-03T03:44:48.124Z,81.31
2022-11-03T03:47:30.687Z,81.96
2022-11-03T03:49:58.143Z,83.78
2022-11-03T03:52:25.305Z,84.83
2022-11-03T03:54:52.654Z,84.39
2022-11-03T03:57:21.325Z,82.92
2022-11-03T03:59:48.303Z,83.95
2022-11-03T04:02:15.899Z,84.27
2022-11-03T04:04:43.076Z,85.29
2022-11-03T04:07:29.186Z,85.63
2022-11-03T04:09:56.329Z,83.58
2022-11-03T04:12:42.291Z,83.21
2022-11-03T04:15:31.285Z,83.61
2022-11-03T04:18:17.160Z,84.42
2022-11-03T04:21:03.166Z,85.21
2022-11-03T04:23:30.268Z,84.46
2022-11-03T04:25:57.367Z,83.79
2022-11-03T04:28:24.875Z,86.11
2022-11-03T04:30:54.703Z,87.37
2022-11-03T04:33:24.954Z,88.20
2022-11-03T04:35:52.046Z,86.29
2022-11-03T04:38:22.363Z,84.91
2022-11-03T04:40:54.648Z,85.53
2022-11-03T04:43:24.700Z,87.27
2022-11-03T04:45:51.865Z,87.15
2022-11-03T04:48:21.418Z,86.03
2022-11-03T04:50:50.043Z,86.28
2022-11-03T04:53:18.131Z,87.10
2022-11-03T04:55:46.196Z,87.81
2022-11-03T04:58:26.749Z,87.16
2022-11-03T05:00:55.235Z,86.09
2022-11-03T05:03:34.247Z,86.91
2022-11-03T05:06:21.772Z,87.61
2022-11-03T05:08:51.415Z,88.70
2022-11-03T05:11:39.400Z,86.78
2022-11-03T05:14:33.119Z,86.17
2022-11-03T05:17:00.299Z,87.57
2022-11-03T05:19:34.628Z,87.49
2022-11-03T05:22:02.858Z,86.14
2022-11-03T05:24:29.945Z,86.19
2022-11-03T05:26:58.385Z,86.46
2022-11-03T05:29:36.650Z,87.08
2022-11-03T05:32:03.834Z,86.77
2022-11-03T05:34:30.831Z,85.67
2022-11-03T05:37:04.536Z,85.72
2022-11-03T05:39:41.784Z,85.88
2022-11-03T05:42:26.141Z,86.06
2022-11-03T05:44:53.288Z,84.86
2022-11-03T05:47:24.891Z,84.58
2022-11-03T05:49:56.600Z,85.79
2022-11-03T05:52:25.804Z,85.78
2022-11-03T05:54:54.283Z,86.12
2022-11-03T05:57:21.421Z,84.09
2022-11-03T05:59:50.223Z,83.52
2022-11-03T06:02:39.850Z,84.15
2022-11-03T06:05:20.543Z,85.12
2022-11-03T06:07:47.996Z,84.18
2022-11-03T06:10:22.498Z,82.98
2022-11-03T06:12:49.584Z,83.46
2022-11-03T06:15:33.956Z,83.68
2022-11-03T06:18:02.936Z,84.25
2022-11-03T06:20:30.036Z,83.68
2022-11-03T06:22:57.133Z,81.85
2022-11-03T06:25:27.449Z,81.71
2022-11-03T06:27:55.833Z,82.68
2022-11-03T06:30:31.617Z,83.15
2022-11-03T06:33:00.822Z,82.90
2022-11-03T06:35:27.945Z,81.71
2022-11-03T06:37:57.022Z,81.29
2022-11-03T06:40:24.955Z,82.09
2022-11-03T06:42:55.220Z,83.40
2022-11-03T06:45:25.951Z,82.10
2022-11-03T06:47:53.710Z,80.98
2022-11-03T06:50:33.289Z,80.90
2022-11-03T06:53:04.286Z,81.46
2022-11-03T06:55:32.094Z,81.73
2022-11-03T06:58:03.084Z,82.63
2022-11-03T07:00:36.181Z,81.76
2022-11-03T07:03:27.098Z,81.34
2022-11-03T07:06:00.335Z,81.61
2022-11-03T07:08:30.427Z,82.82
2022-11-03T07:11:18.866Z,83.21
2022-11-03T07:13:47.743Z,82.09
2022-11-03T07:16:19.601Z,81.80
2022-11-03T07:18:48.103Z,82.14
2022-11-03T07:21:38.550Z,82.42
2022-11-03T07:24:30.723Z,82.94
2022-11-03T07:27:20.918Z,81.62
2022-11-03T07:29:49.284Z,81.04
2022-11-03T07:32:20.890Z,81.46
2022-11-03T07:34:49.489Z,81.34
2022-11-03T07:37:19.340Z,80.28
2022-11-03T07:39:46.380Z,79.19
2022-11-03T07:42:23.869Z,79.85
2022-11-03T07:44:52.615Z,81.94
2022-11-03T07:47:20.837Z,82.85
2022-11-03T07:49:47.972Z,82.42
2022-11-03T07:52:16.367Z,83.17
2022-11-03T07:54:43.370Z,82.96
2022-11-03T07:57:21.668Z,83.77
2022-11-03T07:59:54.096Z,84.59
2022-11-03T08:02:48.019Z,83.14
2022-11-03T08:05:15.289Z,81.87
2022-11-03T08:07:42.576Z,81.25
2022-11-03T08:10:09.982Z,82.46
2022-11-03T08:12:37.181Z,82.43
2022-11-03T08:15:04.513Z,81.27
2022-11-03T08:17:31.584Z,81.23
2022-11-03T08:19:58.739Z,81.14
2022-11-03T08:22:26.282Z,81.58
2022-11-03T08:24:53.442Z,82.12
2022-11-03T08:27:20.555Z,81.48
2022-11-03T08:29:47.844Z,80.19
2022-11-03T08:32:15.101Z,80.63
2022-11-03T08:34:42.167Z,80.78
2022-11-03T08:37:09.706Z,81.81
2022-11-03T08:39:37.219Z,82.27
2022-11-03T08:42:04.747Z,81.55
2022-11-03T08:44:31.973Z,80.61
2022-11-03T08:46:59.136Z,80.79
2022-11-03T08:49:26.275Z,81.62
2022-11-03T08:51:53.345Z,82.33
2022-11-03T08:54:20.363Z,80.66
2022-11-03T08:56:49.057Z,79.16
2022-11-03T08:59:18.268Z,79.00
2022-11-03T09:01:45.498Z,79.01
2022-11-03T09:04:12.696Z,78.87
2022-11-03T09:06:41.286Z,79.79
2022-11-03T09:11:55.713Z,78.65
2022-11-03T09:14:22.856Z,78.28
2022-11-03T09:16:49.889Z,77.80
2022-11-03T09:19:17.154Z,78.77
2022-11-03T09:21:44.515Z,80.58
2022-11-03T09:24:11.558Z,77.88
2022-11-03T09:26:38.719Z,76.97
2022-11-03T09:29:05.760Z,77.25
2022-11-03T09:31:32.774Z,78.74
2022-11-03T09:33:59.951Z,79.01
2022-11-03T09:36:27.208Z,79.10
2022-11-03T09:38:54.371Z,79.15
2022-11-03T09:41:28.221Z,78.35
2022-11-03T09:44:08.598Z,77.79
2022-11-03T09:46:35.664Z,79.17
2022-11-03T09:49:03.391Z,79.83
2022-11-03T09:51:30.476Z,78.36
2022-11-03T09:53:59.574Z,76.92
2022-11-03T09:56:27.271Z,77.31
2022-11-03T09:58:54.846Z,78.61
2022-11-03T10:01:23.043Z,78.32
2022-11-03T10:03:50.534Z,78.08
2022-11-03T10:06:17.879Z,77.35
2022-11-03T10:08:45.647Z,76.80
2022-11-03T10:11:12.618Z,77.25
2022-11-03T10:13:41.136Z,76.17
2022-11-03T10:16:09.557Z,77.01
2022-11-03T10:18:36.885Z,78.18
2022-11-03T10:21:14.238Z,77.43
2022-11-03T10:23:41.359Z,76.05
2022-11-03T10:26:19.345Z,76.64
2022-11-03T10:29:03.872Z,76.80
2022-11-03T10:31:41.792Z,76.31
2022-11-03T10:34:37.941Z,76.94
2022-11-03T10:37:17.713Z,75.92
2022-11-03T10:39:45.764Z,75.80
2022-11-03T10:42:24.070Z,75.64
2022-11-03T10:44:55.641Z,76.09
2022-11-03T10:47:36.585Z,76.54
2022-11-03T10:50:27.211Z,75.95
2022-11-03T10:52:54.470Z,75.39
2022-11-03T10:55:25.193Z,76.10
2022-11-03T10:57:53.454Z,77.00
2022-11-03T11:00:20.779Z,77.56
2022-11-03T11:02:48.820Z,76.63
2022-11-03T11:05:23.444Z,75.70
2022-11-03T11:07:51.992Z,75.69
2022-11-03T11:10:26.976Z,75.46
2022-11-03T11:13:07.159Z,75.82
2022-11-03T11:15:35.391Z,77.05
2022-11-03T11:18:02.598Z,76.17
2022-11-03T11:20:41.631Z,74.36
2022-11-03T11:23:27.323Z,74.00
2022-11-03T11:26:10.035Z,73.57
2022-11-03T11:28:41.680Z,74.56
2022-11-03T11:31:56.139Z,73.27
2022-11-03T11:34:23.743Z,74.67
2022-11-03T11:36:53.952Z,73.78
2022-11-03T11:39:24.447Z,71.32
2022-11-03T11:42:12.427Z,71.24
2022-11-03T11:44:39.955Z,72.01
2022-11-03T11:47:25.837Z,72.84
2022-11-03T11:50:12.277Z,73.19
2022-11-03T11:52:57.310Z,73.25
2022-11-03T11:55:55.865Z,73.05
2022-11-03T11:58:32.874Z,72.34
2022-11-03T12:01:05.075Z,71.77
2022-11-03T12:03:39.728Z,72.56
2022-11-03T12:06:07.233Z,73.17
2022-11-03T12:08:34.385Z,74.13
2022-11-03T12:11:03.202Z,74.77
2022-11-03T12:13:47.839Z,74.55
2022-11-03T12:16:28.701Z,72.26
2022-11-03T12:18:56.477Z,72.84
2022-11-03T12:21:47.072Z,73.40
2022-11-03T12:24:32.564Z,73.34
2022-11-03T12:27:00.612Z,73.08
2022-11-03T12:29:27.789Z,73.23
2022-11-03T12:31:54.909Z,73.03
2022-11-03T12:34:22.258Z,71.80
2022-11-03T12:36:54.743Z,71.68
2022-11-03T12:39:23.110Z,70.85
2022-11-03T12:41:50.090Z,70.04
2022-11-03T12:44:17.241Z,70.42
2022-11-03T12:46:44.463Z,69.62
2022-11-03T12:49:11.615Z,69.63
2022-11-03T12:51:38.639Z,69.10
2022-11-03T12:54:05.728Z,69.24
2022-11-03T12:56:32.938Z,70.02
2022-11-03T12:58:59.959Z,68.82
2022-11-03T13:01:27.311Z,67.79
2022-11-03T13:03:54.382Z,67.67
2022-11-03T13:06:21.341Z,68.50
2022-11-03T13:08:53.122Z,69.55
2022-11-03T13:11:38.790Z,69.82
2022-11-03T13:14:06.120Z,69.81
2022-11-03T13:16:33.286Z,70.42
2022-11-03T13:19:00.235Z,71.10
2022-11-03T13:21:27.210Z,71.44
2022-11-03T13:23:54.845Z,71.05
2022-11-03T13:26:21.856Z,70.00
2022-11-03T13:28:48.802Z,70.18
2022-11-03T13:31:15.839Z,71.03
2022-11-03T13:33:42.874Z,70.94
2022-11-03T13:36:09.964Z,71.40
2022-11-03T13:38:37.114Z,72.06
2022-11-03T13:41:08.700Z,72.21
2022-11-03T13:43:36.880Z,72.80
2022-11-03T13:46:05.214Z,73.10
2022-11-03T13:51:21.603Z,70.98
2022-11-03T14:07:07.345Z,72.19
2022-11-03T14:09:34.460Z,71.53
2022-11-03T14:12:20.090Z,72.11
2022-11-03T14:14:47.128Z,72.66
2022-11-03T14:17:14.253Z,73.28
2022-11-03T14:19:46.039Z,73.63
2022-11-03T14:22:15.806Z,73.97
2022-11-03T14:24:42.835Z,73.49
2022-11-03T14:27:09.837Z,72.08
2022-11-03T14:29:36.812Z,71.70
2022-11-03T14:32:03.767Z,71.09
2022-11-03T14:34:30.784Z,71.10
2022-11-03T14:36:57.946Z,71.29
2022-11-03T14:39:25.012Z,71.86
2022-11-03T14:42:04.036Z,72.30
2022-11-03T14:44:38.546Z,72.59
2022-11-03T14:47:07.109Z,72.61
2022-11-03T14:49:34.593Z,71.34
2022-11-03T14:52:02.346Z,71.02
2022-11-03T14:54:29.938Z,71.43
2022-11-03T14:56:57.224Z,71.77
2022-11-03T14:59:24.262Z,72.36
2022-11-03T15:01:54.277Z,72.47
2022-11-03T15:04:21.917Z,72.67
2022-11-03T15:06:49.098Z,73.41
2022-11-03T15:09:16.343Z,72.62
2022-11-03T15:11:43.742Z,71.11
2022-11-03T15:14:11.983Z,71.29
2022-11-03T15:16:39.807Z,70.87
2022-11-03T15:19:07.186Z,70.59
2022-11-03T15:21:37.047Z,71.66
2022-11-03T15:26:51.583Z,71.69
2022-11-03T15:29:18.608Z,71.97
2022-11-03T15:31:48.166Z,71.85
2022-11-03T15:34:16.215Z,71.33
2022-11-03T15:36:43.309Z,69.64
2022-11-03T15:39:10.359Z,68.99
2022-11-03T15:41:37.351Z,69.20
2022-11-03T15:44:04.388Z,69.27
2022-11-03T15:46:31.466Z,70.17
2022-11-03T15:48:58.504Z,70.66
2022-11-03T15:51:25.693Z,71.63
2022-11-03T15:53:58.242Z,72.23
2022-11-03T15:56:27.059Z,72.58
2022-11-03T15:58:54.106Z,72.60
2022-11-03T16:01:21.503Z,71.42
2022-11-03T16:03:48.742Z,70.49
2022-11-03T16:06:16.030Z,70.66
2022-11-03T16:08:43.630Z,71.20
2022-11-03T16:11:10.661Z,72.51
2022-11-03T16:13:37.768Z,73.20
2022-11-03T16:16:05.135Z,73.46
2022-11-03T16:18:32.153Z,73.85
2022-11-03T16:20:59.236Z,74.28
2022-11-03T16:23:26.261Z,72.95
2022-11-03T16:25:53.981Z,71.03
2022-11-03T16:28:20.988Z,70.19
2022-11-03T16:30:53.001Z,70.96
2022-11-03T16:33:21.314Z,71.94
2022-11-03T16:35:48.334Z,72.57
2022-11-03T16:38:15.577Z,72.67
2022-11-03T16:40:43.196Z,73.11
2022-11-03T16:43:10.333Z,73.74
2022-11-03T16:45:38.068Z,74.53
2022-11-03T16:48:06.636Z,73.32
2022-11-03T16:50:34.246Z,71.98
2022-11-03T16:53:01.294Z,72.09
2022-11-03T16:55:28.529Z,72.95
2022-11-03T16:57:55.625Z,73.10
2022-11-03T17:00:24.284Z,74.49
2022-11-03T17:02:51.417Z,74.92
2022-11-03T17:05:20.105Z,75.46
2022-11-03T17:07:52.879Z,76.52
2022-11-03T17:10:20.764Z,75.11
2022-11-03T17:12:48.091Z,74.15
2022-11-03T17:15:15.250Z,74.26
2022-11-03T17:17:42.354Z,74.52
2022-11-03T17:20:10.988Z,75.21
2022-11-03T17:22:38.231Z,76.21
2022-11-03T17:25:06.497Z,77.10
2022-11-03T17:27:43.759Z,77.22
2022-11-03T17:30:22.229Z,76.02
2022-11-03T17:32:50.871Z,74.33
2022-11-03T17:35:25.738Z,74.05
2022-11-03T17:37:52.901Z,74.81
2022-11-03T17:40:24.091Z,75.69
2022-11-03T17:42:51.362Z,76.35
2022-11-03T17:45:20.132Z,77.44
2022-11-03T17:47:47.272Z,78.52
2022-11-03T17:50:16.166Z,77.29
2022-11-03T17:52:43.675Z,75.30
2022-11-03T17:55:36.256Z,74.41
2022-11-03T17:58:04.890Z,74.86
2022-11-03T18:00:31.982Z,75.46
2022-11-03T18:02:59.042Z,76.14
2022-11-03T18:05:30.416Z,77.26
2022-11-03T18:07:58.482Z,78.29
2022-11-03T18:10:27.765Z,78.38
2022-11-03T18:13:14.880Z,76.20
2022-11-03T18:16:01.282Z,75.47
2022-11-03T18:18:34.734Z,75.95
2022-11-03T18:21:01.758Z,76.88
2022-11-03T18:23:33.057Z,77.33
2022-11-03T18:26:04.394Z,78.08
2022-11-03T18:28:31.538Z,79.15
2022-11-03T18:30:58.899Z,79.92
2022-11-03T18:33:30.054Z,79.82
2022-11-03T18:35:57.391Z,77.97
2022-11-03T18:38:25.207Z,77.08
2022-11-03T18:40:57.525Z,77.11
2022-11-03T18:43:26.768Z,77.41
2022-11-03T18:45:53.887Z,77.95
2022-11-03T18:48:21.140Z,78.28
2022-11-03T18:50:52.656Z,79.12
2022-11-03T18:53:21.399Z,79.68
2022-11-03T18:55:48.838Z,79.82
2022-11-03T18:58:20.727Z,78.40
2022-11-03T19:00:47.983Z,77.81
2022-11-03T19:03:16.584Z,77.83
2022-11-03T19:05:48.001Z,78.25
2022-11-03T19:08:26.137Z,78.59
2022-11-03T19:10:53.786Z,79.55
2022-11-03T19:13:34.623Z,79.87
2022-11-03T19:16:02.771Z,80.72
2022-11-03T19:18:30.738Z,80.80
2022-11-03T19:20:58.240Z,79.25
2022-11-03T19:23:25.326Z,78.74
2022-11-03T19:25:56.616Z,79.54
2022-11-03T19:28:26.230Z,80.56
2022-11-03T19:30:57.901Z,81.27
2022-11-03T19:33:28.093Z,81.96
2022-11-03T19:35:58.327Z,82.92
2022-11-03T19:38:27.295Z,83.20
2022-11-03T19:41:15.333Z,81.06
2022-11-03T19:43:45.127Z,80.22
2022-11-03T19:46:18.628Z,80.42
2022-11-03T19:48:49.677Z,81.18
2022-11-03T19:51:20.351Z,81.69
2022-11-03T19:53:49.601Z,82.50
2022-11-03T19:56:20.349Z,83.02
2022-11-03T19:58:50.660Z,82.83
2022-11-03T20:01:20.323Z,81.23
2022-11-03T20:03:50.643Z,80.62
2022-11-03T20:06:20.061Z,80.77
2022-11-03T20:08:49.673Z,81.47
2022-11-03T20:11:21.189Z,82.66
2022-11-03T20:13:50.208Z,83.68
2022-11-03T20:16:19.223Z,84.31
2022-11-03T20:18:49.022Z,83.68
2022-11-03T20:21:19.121Z,81.81
2022-11-03T20:23:48.693Z,80.46
2022-11-03T20:34:14.680Z,82.29
2022-11-03T20:36:42.601Z,83.28
2022-11-03T20:39:13.693Z,83.77
2022-11-03T20:41:45.297Z,82.33
2022-11-03T20:44:13.205Z,81.41
2022-11-03T20:46:42.471Z,80.90
2022-11-03T20:49:09.510Z,81.64
2022-11-03T20:51:42.294Z,82.32
2022-11-03T20:54:17.564Z,83.15
2022-11-03T20:56:45.501Z,84.09
2022-11-03T21:01:45.799Z,82.87
2022-11-03T21:04:14.225Z,82.15
2022-11-03T21:06:41.985Z,82.05
2022-11-03T21:09:13.583Z,82.35
2022-11-03T21:11:42.738Z,83.22
2022-11-03T21:14:32.616Z,84.54
2022-11-03T21:17:18.806Z,84.89
2022-11-03T21:19:58.153Z,83.77
2022-11-03T21:22:52.289Z,83.17
2022-11-03T21:25:21.512Z,83.22
2022-11-03T21:27:49.863Z,84.03
2022-11-03T21:30:17.865Z,85.35
2022-11-03T21:32:45.543Z,86.04
2022-11-03T21:35:18.827Z,85.98
2022-11-03T21:37:46.703Z,84.56
2022-11-03T21:40:14.074Z,83.37
2022-11-03T21:42:59.874Z,83.47
2022-11-03T21:45:28.750Z,84.32
2022-11-03T21:48:15.009Z,84.96
2022-11-03T21:50:42.696Z,86.00
2022-11-03T21:53:11.612Z,85.51
2022-11-03T21:55:39.661Z,83.71
2022-11-03T21:58:07.001Z,82.88
2022-11-03T22:00:34.745Z,82.88
2022-11-03T22:03:03.796Z,82.93
2022-11-03T22:05:31.577Z,83.82
2022-11-03T22:07:58.786Z,84.87
2022-11-03T22:10:26.128Z,84.53
2022-11-03T22:12:53.206Z,83.23
2022-11-03T22:15:39.134Z,82.44
2022-11-03T22:18:06.931Z,83.18
2022-11-03T22:21:00.890Z,83.78
2022-11-03T22:23:49.568Z,84.35
2022-11-03T22:26:35.452Z,85.07
2022-11-03T22:29:22.482Z,84.49
2022-11-03T22:31:49.514Z,82.92
2022-11-03T22:34:36.122Z,82.22
2022-11-03T22:37:03.143Z,82.09
2022-11-03T22:39:51.313Z,82.18
2022-11-03T22:42:37.286Z,82.89
2022-11-03T22:45:24.025Z,83.62
2022-11-03T22:47:56.458Z,83.31
2022-11-03T22:50:23.732Z,82.13
2022-11-03T22:52:50.722Z,81.68
2022-11-03T22:55:17.899Z,81.55
2022-11-03T22:57:45.009Z,81.59
2022-11-03T23:00:13.456Z,82.09
2022-11-03T23:02:40.916Z,82.65
2022-11-03T23:05:09.335Z,83.19
2022-11-03T23:07:41.005Z,83.43
2022-11-03T23:10:10.126Z,82.20
2022-11-03T23:12:37.409Z,79.89
2022-11-03T23:15:26.767Z,79.45
2022-11-03T23:18:13.154Z,80.33
2022-11-03T23:20:59.162Z,81.78
2022-11-03T23:23:45.158Z,83.46
2022-11-03T23:26:15.987Z,84.52
2022-11-03T23:28:43.860Z,83.99
2022-11-03T23:31:11.923Z,82.21
2022-11-03T23:33:39.845Z,82.02
2022-11-03T23:36:09.136Z,82.34
2022-11-03T23:38:36.558Z,83.20
2022-11-03T23:41:10.955Z,84.01
2022-11-03T23:43:38.337Z,84.77
2022-11-03T23:46:26.261Z,85.20
2022-11-03T23:48:53.723Z,85.25
2022-11-03T23:51:22.604Z,84.17
2022-11-03T23:53:50.369Z,83.48
2022-11-03T23:56:38.516Z,83.33
2022-11-03T23:59:06.397Z,83.94
